sensor_id;sensor_type;location;lat;lon;timestamp;P1;durP1;ratioP1;P2;durP2;ratioP2
7759;SDS011;3924;48.830;9.262;2023-01-16T00:01:00;2.67;;;1.07;;
7759;SDS011;3924;48.830;9.262;2023-01-16T00:03:27;1.93;;;1.23;;
7759;SDS011;3924;48.830;9.262;2023-01-16T00:05:53;1.10;;;1.00;;
7759;SDS011;3924;48.830;9.262;2023-01-16T00:08:20;4.07;;;1.30;;
7759;SDS011;3924;48.830;9.262;2023-01-16T00:10:46;1.87;;;1.00;;
7759;SDS011;3924;48.830;9.262;2023-01-16T00:13:13;2.57;;;1.20;;
7759;SDS011;3924;48.830;9.262;2023-01-16T00:15:43;5.77;;;1.03;;
7759;SDS011;3924;48.830;9.262;2023-01-16T00:18:15;1.00;;;1.00;;
7759;SDS011;3924;48.830;9.262;2023-01-16T00:20:41;3.00;;;1.07;;
7759;SDS011;3924;48.830;9.262;2023-01-16T00:23:08;1.23;;;1.07;;
7759;SDS011;3924;48.830;9.262;2023-01-16T00:25:39;2.80;;;1.13;;
7759;SDS011;3924;48.830;9.262;2023-01-16T00:28:08;4.43;;;1.30;;
7759;SDS011;3924;48.830;9.262;2023-01-16T00:30:35;1.73;;;0.90;;
7759;SDS011;3924;48.830;9.262;2023-01-16T00:33:02;2.43;;;0.90;;
7759;SDS011;3924;48.830;9.262;2023-01-16T00:35:30;1.00;;;0.90;;
7759;SDS011;3924;48.830;9.262;2023-01-16T00:37:57;1.10;;;0.97;;
7759;SDS011;3924;48.830;9.262;2023-01-16T00:40:23;1.30;;;0.97;;
7759;SDS011;3924;48.830;9.262;2023-01-16T00:42:51;1.03;;;0.97;;
7759;SDS011;3924;48.830;9.262;2023-01-16T00:45:17;1.40;;;1.30;;
7759;SDS011;3924;48.830;9.262;2023-01-16T00:47:44;1.90;;;0.93;;
7759;SDS011;3924;48.830;9.262;2023-01-16T00:50:10;2.10;;;1.00;;
7759;SDS011;3924;48.830;9.262;2023-01-16T00:52:37;2.00;;;1.20;;
7759;SDS011;3924;48.830;9.262;2023-01-16T00:55:04;5.60;;;1.17;;
7759;SDS011;3924;48.830;9.262;2023-01-16T00:57:30;1.43;;;1.03;;
7759;SDS011;3924;48.830;9.262;2023-01-16T00:59:57;1.77;;;1.13;;
7759;SDS011;3924;48.830;9.262;2023-01-16T01:02:23;2.03;;;1.00;;
7759;SDS011;3924;48.830;9.262;2023-01-16T01:04:50;1.03;;;0.93;;
7759;SDS011;3924;48.830;9.262;2023-01-16T01:07:16;5.87;;;1.47;;
7759;SDS011;3924;48.830;9.262;2023-01-16T01:09:43;3.07;;;1.60;;
7759;SDS011;3924;48.830;9.262;2023-01-16T01:12:09;2.43;;;0.80;;
7759;SDS011;3924;48.830;9.262;2023-01-16T01:14:36;3.30;;;0.90;;
7759;SDS011;3924;48.830;9.262;2023-01-16T01:17:02;1.70;;;0.90;;
7759;SDS011;3924;48.830;9.262;2023-01-16T01:19:28;0.80;;;0.80;;
7759;SDS011;3924;48.830;9.262;2023-01-16T01:21:55;1.40;;;1.03;;
7759;SDS011;3924;48.830;9.262;2023-01-16T01:24:21;2.10;;;0.90;;
7759;SDS011;3924;48.830;9.262;2023-01-16T01:26:48;1.70;;;0.90;;
7759;SDS011;3924;48.830;9.262;2023-01-16T01:29:14;0.77;;;0.77;;
7759;SDS011;3924;48.830;9.262;2023-01-16T01:31:41;1.60;;;0.90;;
7759;SDS011;3924;48.830;9.262;2023-01-16T01:34:07;1.03;;;0.80;;
7759;SDS011;3924;48.830;9.262;2023-01-16T01:36:34;1.57;;;1.00;;
7759;SDS011;3924;48.830;9.262;2023-01-16T01:39:00;1.53;;;0.70;;
7759;SDS011;3924;48.830;9.262;2023-01-16T01:41:27;1.80;;;0.60;;
7759;SDS011;3924;48.830;9.262;2023-01-16T01:43:54;0.70;;;0.63;;
7759;SDS011;3924;48.830;9.262;2023-01-16T01:51:47;0.63;;;0.63;;
7759;SDS011;3924;48.830;9.262;2023-01-16T01:54:24;0.70;;;0.70;;
7759;SDS011;3924;48.830;9.262;2023-01-16T01:56:56;0.60;;;0.60;;
7759;SDS011;3924;48.830;9.262;2023-01-16T01:59:28;0.60;;;0.60;;
7759;SDS011;3924;48.830;9.262;2023-01-16T02:02:01;2.50;;;0.87;;
7759;SDS011;3924;48.830;9.262;2023-01-16T02:04:32;0.93;;;0.80;;
7759;SDS011;3924;48.830;9.262;2023-01-16T02:07:03;1.93;;;0.80;;
7759;SDS011;3924;48.830;9.262;2023-01-16T02:09:32;1.00;;;0.80;;
7759;SDS011;3924;48.830;9.262;2023-01-16T02:12:07;1.23;;;0.77;;
7759;SDS011;3924;48.830;9.262;2023-01-16T02:14:36;1.43;;;0.77;;
7759;SDS011;3924;48.830;9.262;2023-01-16T02:17:05;1.10;;;0.90;;
7759;SDS011;3924;48.830;9.262;2023-01-16T02:20:12;2.33;;;0.70;;
7759;SDS011;3924;48.830;9.262;2023-01-16T02:37:01;1.10;;;0.87;;
7759;SDS011;3924;48.830;9.262;2023-01-16T02:39:58;0.77;;;0.77;;
7759;SDS011;3924;48.830;9.262;2023-01-16T02:45:18;2.97;;;0.90;;
7759;SDS011;3924;48.830;9.262;2023-01-16T02:53:21;2.10;;;0.93;;
7759;SDS011;3924;48.830;9.262;2023-01-16T02:55:54;1.40;;;0.87;;
7759;SDS011;3924;48.830;9.262;2023-01-16T02:58:29;1.37;;;0.80;;
7759;SDS011;3924;48.830;9.262;2023-01-16T03:00:59;1.60;;;1.10;;
7759;SDS011;3924;48.830;9.262;2023-01-16T03:11:47;0.70;;;0.70;;
7759;SDS011;3924;48.830;9.262;2023-01-16T03:17:29;0.60;;;0.60;;
7759;SDS011;3924;48.830;9.262;2023-01-16T03:20:20;5.00;;;1.00;;
7759;SDS011;3924;48.830;9.262;2023-01-16T03:23:20;1.53;;;0.93;;
7759;SDS011;3924;48.830;9.262;2023-01-16T03:31:39;0.97;;;0.60;;
7759;SDS011;3924;48.830;9.262;2023-01-16T03:37:17;0.97;;;0.73;;
7759;SDS011;3924;48.830;9.262;2023-01-16T03:39:50;0.70;;;0.70;;
7759;SDS011;3924;48.830;9.262;2023-01-16T03:42:27;0.77;;;0.77;;
7759;SDS011;3924;48.830;9.262;2023-01-16T03:45:00;3.03;;;0.90;;
7759;SDS011;3924;48.830;9.262;2023-01-16T03:47:34;0.67;;;0.60;;
7759;SDS011;3924;48.830;9.262;2023-01-16T03:50:08;0.70;;;0.70;;
7759;SDS011;3924;48.830;9.262;2023-01-16T03:52:39;1.70;;;1.17;;
7759;SDS011;3924;48.830;9.262;2023-01-16T03:58:24;4.83;;;0.73;;
7759;SDS011;3924;48.830;9.262;2023-01-16T04:09:05;0.90;;;0.60;;
7759;SDS011;3924;48.830;9.262;2023-01-16T04:11:36;0.83;;;0.83;;
7759;SDS011;3924;48.830;9.262;2023-01-16T04:14:05;1.27;;;0.87;;
7759;SDS011;3924;48.830;9.262;2023-01-16T04:16:35;0.60;;;0.60;;
7759;SDS011;3924;48.830;9.262;2023-01-16T04:19:04;1.70;;;0.90;;
7759;SDS011;3924;48.830;9.262;2023-01-16T04:21:32;1.27;;;0.80;;
7759;SDS011;3924;48.830;9.262;2023-01-16T04:23:59;0.73;;;0.73;;
7759;SDS011;3924;48.830;9.262;2023-01-16T04:26:27;2.70;;;1.00;;
7759;SDS011;3924;48.830;9.262;2023-01-16T04:28:54;1.27;;;0.73;;
7759;SDS011;3924;48.830;9.262;2023-01-16T04:31:22;2.40;;;0.80;;
7759;SDS011;3924;48.830;9.262;2023-01-16T04:33:49;0.80;;;0.80;;
7759;SDS011;3924;48.830;9.262;2023-01-16T04:36:19;2.33;;;1.27;;
7759;SDS011;3924;48.830;9.262;2023-01-16T04:38:45;1.20;;;1.07;;
7759;SDS011;3924;48.830;9.262;2023-01-16T04:41:12;2.20;;;1.33;;
7759;SDS011;3924;48.830;9.262;2023-01-16T04:43:38;1.40;;;1.20;;
7759;SDS011;3924;48.830;9.262;2023-01-16T04:46:05;1.17;;;1.07;;
7759;SDS011;3924;48.830;9.262;2023-01-16T04:48:31;1.57;;;1.00;;
7759;SDS011;3924;48.830;9.262;2023-01-16T04:50:58;4.13;;;1.03;;
7759;SDS011;3924;48.830;9.262;2023-01-16T04:53:24;1.03;;;0.80;;
7759;SDS011;3924;48.830;9.262;2023-01-16T04:55:50;1.40;;;1.00;;
7759;SDS011;3924;48.830;9.262;2023-01-16T04:58:17;0.80;;;0.80;;
7759;SDS011;3924;48.830;9.262;2023-01-16T05:00:43;1.10;;;0.80;;
7759;SDS011;3924;48.830;9.262;2023-01-16T05:03:10;0.80;;;0.80;;
7759;SDS011;3924;48.830;9.262;2023-01-16T05:05:37;0.93;;;0.70;;
7759;SDS011;3924;48.830;9.262;2023-01-16T05:08:04;0.77;;;0.67;;
7759;SDS011;3924;48.830;9.262;2023-01-16T05:10:43;1.13;;;0.80;;
7759;SDS011;3924;48.830;9.262;2023-01-16T05:13:09;0.60;;;0.60;;
7759;SDS011;3924;48.830;9.262;2023-01-16T05:15:36;0.83;;;0.83;;
7759;SDS011;3924;48.830;9.262;2023-01-16T05:18:02;2.57;;;1.00;;
7759;SDS011;3924;48.830;9.262;2023-01-16T05:20:30;0.80;;;0.80;;
7759;SDS011;3924;48.830;9.262;2023-01-16T05:22:57;1.17;;;1.00;;
7759;SDS011;3924;48.830;9.262;2023-01-16T05:25:23;2.13;;;1.07;;
7759;SDS011;3924;48.830;9.262;2023-01-16T05:27:50;0.60;;;0.60;;
7759;SDS011;3924;48.830;9.262;2023-01-16T05:30:17;1.03;;;1.03;;
7759;SDS011;3924;48.830;9.262;2023-01-16T05:32:44;4.10;;;1.00;;
7759;SDS011;3924;48.830;9.262;2023-01-16T05:35:10;1.17;;;1.10;;
7759;SDS011;3924;48.830;9.262;2023-01-16T05:37:37;2.43;;;1.20;;
7759;SDS011;3924;48.830;9.262;2023-01-16T05:40:04;2.50;;;0.80;;
7759;SDS011;3924;48.830;9.262;2023-01-16T05:42:31;2.43;;;1.07;;
7759;SDS011;3924;48.830;9.262;2023-01-16T05:44:58;2.93;;;0.90;;
7759;SDS011;3924;48.830;9.262;2023-01-16T05:47:24;1.00;;;0.77;;
7759;SDS011;3924;48.830;9.262;2023-01-16T05:49:50;1.60;;;0.93;;
7759;SDS011;3924;48.830;9.262;2023-01-16T05:52:17;0.77;;;0.77;;
7759;SDS011;3924;48.830;9.262;2023-01-16T05:54:44;1.50;;;0.90;;
7759;SDS011;3924;48.830;9.262;2023-01-16T05:57:10;3.73;;;1.17;;
7759;SDS011;3924;48.830;9.262;2023-01-16T05:59:38;3.10;;;1.03;;
7759;SDS011;3924;48.830;9.262;2023-01-16T06:02:07;0.93;;;0.77;;
7759;SDS011;3924;48.830;9.262;2023-01-16T06:04:34;1.03;;;1.00;;
7759;SDS011;3924;48.830;9.262;2023-01-16T06:07:00;1.80;;;0.97;;
7759;SDS011;3924;48.830;9.262;2023-01-16T06:09:26;1.43;;;0.80;;
7759;SDS011;3924;48.830;9.262;2023-01-16T06:11:53;1.43;;;0.90;;
7759;SDS011;3924;48.830;9.262;2023-01-16T06:14:19;2.57;;;1.37;;
7759;SDS011;3924;48.830;9.262;2023-01-16T06:16:46;3.17;;;1.00;;
7759;SDS011;3924;48.830;9.262;2023-01-16T06:19:12;3.50;;;1.17;;
7759;SDS011;3924;48.830;9.262;2023-01-16T06:21:38;1.30;;;1.20;;
7759;SDS011;3924;48.830;9.262;2023-01-16T06:24:05;1.00;;;1.00;;
7759;SDS011;3924;48.830;9.262;2023-01-16T06:26:32;1.57;;;1.40;;
7759;SDS011;3924;48.830;9.262;2023-01-16T06:28:58;2.23;;;1.67;;
7759;SDS011;3924;48.830;9.262;2023-01-16T06:31:25;3.50;;;1.30;;
7759;SDS011;3924;48.830;9.262;2023-01-16T06:33:51;1.53;;;1.27;;
7759;SDS011;3924;48.830;9.262;2023-01-16T06:36:18;2.23;;;1.40;;
7759;SDS011;3924;48.830;9.262;2023-01-16T06:38:44;0.93;;;0.90;;
7759;SDS011;3924;48.830;9.262;2023-01-16T06:41:11;1.43;;;1.33;;
7759;SDS011;3924;48.830;9.262;2023-01-16T06:43:37;2.23;;;1.40;;
7759;SDS011;3924;48.830;9.262;2023-01-16T06:46:04;2.20;;;1.87;;
7759;SDS011;3924;48.830;9.262;2023-01-16T06:48:30;4.10;;;1.93;;
7759;SDS011;3924;48.830;9.262;2023-01-16T06:50:57;1.60;;;1.50;;
7759;SDS011;3924;48.830;9.262;2023-01-16T06:53:26;1.57;;;1.27;;
7759;SDS011;3924;48.830;9.262;2023-01-16T06:55:53;1.87;;;0.93;;
7759;SDS011;3924;48.830;9.262;2023-01-16T06:58:19;6.73;;;1.10;;
7759;SDS011;3924;48.830;9.262;2023-01-16T07:00:46;1.00;;;0.90;;
7759;SDS011;3924;48.830;9.262;2023-01-16T07:03:17;1.03;;;0.80;;
7759;SDS011;3924;48.830;9.262;2023-01-16T07:05:44;1.03;;;0.97;;
7759;SDS011;3924;48.830;9.262;2023-01-16T07:08:11;0.83;;;0.83;;
7759;SDS011;3924;48.830;9.262;2023-01-16T07:10:38;1.87;;;1.00;;
7759;SDS011;3924;48.830;9.262;2023-01-16T07:13:05;2.17;;;0.93;;
7759;SDS011;3924;48.830;9.262;2023-01-16T07:15:32;1.47;;;0.77;;
7759;SDS011;3924;48.830;9.262;2023-01-16T07:18:17;3.53;;;1.10;;
7759;SDS011;3924;48.830;9.262;2023-01-16T07:21:03;1.73;;;1.03;;
7759;SDS011;3924;48.830;9.262;2023-01-16T07:23:51;1.33;;;1.23;;
7759;SDS011;3924;48.830;9.262;2023-01-16T07:26:22;1.13;;;1.10;;
7759;SDS011;3924;48.830;9.262;2023-01-16T07:28:49;2.73;;;1.40;;
7759;SDS011;3924;48.830;9.262;2023-01-16T07:31:19;1.53;;;1.03;;
7759;SDS011;3924;48.830;9.262;2023-01-16T07:33:46;2.23;;;1.50;;
7759;SDS011;3924;48.830;9.262;2023-01-16T07:36:13;3.00;;;0.97;;
7759;SDS011;3924;48.830;9.262;2023-01-16T07:38:39;2.00;;;1.13;;
7759;SDS011;3924;48.830;9.262;2023-01-16T07:41:06;1.30;;;1.10;;
7759;SDS011;3924;48.830;9.262;2023-01-16T07:43:32;1.20;;;0.93;;
7759;SDS011;3924;48.830;9.262;2023-01-16T07:45:58;2.13;;;1.40;;
7759;SDS011;3924;48.830;9.262;2023-01-16T07:48:25;0.80;;;0.80;;
7759;SDS011;3924;48.830;9.262;2023-01-16T07:50:52;1.60;;;1.00;;
7759;SDS011;3924;48.830;9.262;2023-01-16T07:53:21;2.30;;;1.20;;
7759;SDS011;3924;48.830;9.262;2023-01-16T07:55:49;1.00;;;0.90;;
7759;SDS011;3924;48.830;9.262;2023-01-16T07:58:16;2.23;;;0.80;;
7759;SDS011;3924;48.830;9.262;2023-01-16T08:00:44;0.80;;;0.80;;
7759;SDS011;3924;48.830;9.262;2023-01-16T08:03:11;5.27;;;1.17;;
7759;SDS011;3924;48.830;9.262;2023-01-16T08:05:39;2.03;;;1.20;;
7759;SDS011;3924;48.830;9.262;2023-01-16T08:08:06;1.40;;;1.10;;
7759;SDS011;3924;48.830;9.262;2023-01-16T08:10:32;1.80;;;0.90;;
7759;SDS011;3924;48.830;9.262;2023-01-16T08:12:59;0.80;;;0.80;;
7759;SDS011;3924;48.830;9.262;2023-01-16T08:15:25;2.20;;;0.80;;
7759;SDS011;3924;48.830;9.262;2023-01-16T08:17:52;2.87;;;1.00;;
7759;SDS011;3924;48.830;9.262;2023-01-16T08:20:18;0.80;;;0.80;;
7759;SDS011;3924;48.830;9.262;2023-01-16T08:22:46;0.73;;;0.73;;
7759;SDS011;3924;48.830;9.262;2023-01-16T08:25:14;0.60;;;0.60;;
7759;SDS011;3924;48.830;9.262;2023-01-16T08:27:40;0.70;;;0.70;;
7759;SDS011;3924;48.830;9.262;2023-01-16T08:30:07;0.50;;;0.50;;
7759;SDS011;3924;48.830;9.262;2023-01-16T08:32:35;0.70;;;0.70;;
7759;SDS011;3924;48.830;9.262;2023-01-16T08:35:01;1.47;;;0.93;;
7759;SDS011;3924;48.830;9.262;2023-01-16T08:37:30;0.70;;;0.70;;
7759;SDS011;3924;48.830;9.262;2023-01-16T08:39:57;1.33;;;1.10;;
7759;SDS011;3924;48.830;9.262;2023-01-16T08:42:23;2.37;;;0.80;;
7759;SDS011;3924;48.830;9.262;2023-01-16T08:45:09;0.70;;;0.70;;
7759;SDS011;3924;48.830;9.262;2023-01-16T08:47:55;2.77;;;0.70;;
7759;SDS011;3924;48.830;9.262;2023-01-16T08:50:43;0.93;;;0.80;;
7759;SDS011;3924;48.830;9.262;2023-01-16T08:53:29;2.03;;;0.90;;
7759;SDS011;3924;48.830;9.262;2023-01-16T08:55:55;0.60;;;0.60;;
7759;SDS011;3924;48.830;9.262;2023-01-16T08:58:22;0.77;;;0.77;;
7759;SDS011;3924;48.830;9.262;2023-01-16T09:00:48;0.70;;;0.70;;
7759;SDS011;3924;48.830;9.262;2023-01-16T09:03:16;1.33;;;0.80;;
7759;SDS011;3924;48.830;9.262;2023-01-16T09:05:43;0.60;;;0.60;;
7759;SDS011;3924;48.830;9.262;2023-01-16T09:08:10;0.70;;;0.70;;
7759;SDS011;3924;48.830;9.262;2023-01-16T09:10:37;0.50;;;0.50;;
7759;SDS011;3924;48.830;9.262;2023-01-16T09:13:03;0.97;;;0.87;;
7759;SDS011;3924;48.830;9.262;2023-01-16T09:15:48;0.87;;;0.77;;
7759;SDS011;3924;48.830;9.262;2023-01-16T09:18:15;3.97;;;0.90;;
7759;SDS011;3924;48.830;9.262;2023-01-16T09:20:42;0.60;;;0.60;;
7759;SDS011;3924;48.830;9.262;2023-01-16T09:23:08;0.70;;;0.70;;
7759;SDS011;3924;48.830;9.262;2023-01-16T09:25:35;1.60;;;0.80;;
7759;SDS011;3924;48.830;9.262;2023-01-16T09:28:01;0.83;;;0.80;;
7759;SDS011;3924;48.830;9.262;2023-01-16T09:30:29;0.80;;;0.80;;
7759;SDS011;3924;48.830;9.262;2023-01-16T09:32:56;0.60;;;0.60;;
7759;SDS011;3924;48.830;9.262;2023-01-16T09:35:22;0.80;;;0.80;;
7759;SDS011;3924;48.830;9.262;2023-01-16T09:37:49;0.60;;;0.60;;
7759;SDS011;3924;48.830;9.262;2023-01-16T09:40:16;0.90;;;0.90;;
7759;SDS011;3924;48.830;9.262;2023-01-16T09:45:46;2.00;;;0.80;;
7759;SDS011;3924;48.830;9.262;2023-01-16T09:48:26;0.50;;;0.50;;
7759;SDS011;3924;48.830;9.262;2023-01-16T09:50:57;1.50;;;0.80;;
7759;SDS011;3924;48.830;9.262;2023-01-16T09:53:37;0.73;;;0.67;;
7759;SDS011;3924;48.830;9.262;2023-01-16T09:56:36;0.50;;;0.50;;
7759;SDS011;3924;48.830;9.262;2023-01-16T09:59:33;0.50;;;0.50;;
7759;SDS011;3924;48.830;9.262;2023-01-16T10:04:33;1.10;;;0.77;;
7759;SDS011;3924;48.830;9.262;2023-01-16T10:07:23;0.70;;;0.70;;
7759;SDS011;3924;48.830;9.262;2023-01-16T10:16:12;0.87;;;0.70;;
7759;SDS011;3924;48.830;9.262;2023-01-16T10:18:55;0.60;;;0.60;;
7759;SDS011;3924;48.830;9.262;2023-01-16T10:24:01;1.17;;;0.67;;
7759;SDS011;3924;48.830;9.262;2023-01-16T10:26:44;0.80;;;0.80;;
7759;SDS011;3924;48.830;9.262;2023-01-16T10:32:04;0.70;;;0.70;;
7759;SDS011;3924;48.830;9.262;2023-01-16T10:34:40;2.00;;;0.60;;
7759;SDS011;3924;48.830;9.262;2023-01-16T10:37:18;0.60;;;0.60;;
7759;SDS011;3924;48.830;9.262;2023-01-16T10:39:47;2.63;;;0.80;;
7759;SDS011;3924;48.830;9.262;2023-01-16T10:42:17;0.57;;;0.57;;
7759;SDS011;3924;48.830;9.262;2023-01-16T10:45:12;0.60;;;0.60;;
7759;SDS011;3924;48.830;9.262;2023-01-16T10:47:59;0.90;;;0.90;;
7759;SDS011;3924;48.830;9.262;2023-01-16T10:50:45;0.70;;;0.70;;
7759;SDS011;3924;48.830;9.262;2023-01-16T10:53:13;0.50;;;0.50;;
7759;SDS011;3924;48.830;9.262;2023-01-16T10:55:44;0.90;;;0.50;;
7759;SDS011;3924;48.830;9.262;2023-01-16T10:58:36;0.50;;;0.50;;
7759;SDS011;3924;48.830;9.262;2023-01-16T11:01:03;0.60;;;0.60;;
7759;SDS011;3924;48.830;9.262;2023-01-16T11:03:36;0.50;;;0.50;;
7759;SDS011;3924;48.830;9.262;2023-01-16T11:09:35;0.50;;;0.50;;
7759;SDS011;3924;48.830;9.262;2023-01-16T11:11:40;0.77;;;0.77;;
7759;SDS011;3924;48.830;9.262;2023-01-16T11:17:23;1.20;;;0.60;;
7759;SDS011;3924;48.830;9.262;2023-01-16T11:20:18;0.60;;;0.60;;
7759;SDS011;3924;48.830;9.262;2023-01-16T11:22:48;0.60;;;0.60;;
7759;SDS011;3924;48.830;9.262;2023-01-16T11:25:23;0.50;;;0.50;;
7759;SDS011;3924;48.830;9.262;2023-01-16T11:27:51;2.27;;;0.60;;
7759;SDS011;3924;48.830;9.262;2023-01-16T11:30:42;0.73;;;0.60;;
7759;SDS011;3924;48.830;9.262;2023-01-16T11:33:12;0.70;;;0.70;;
7759;SDS011;3924;48.830;9.262;2023-01-16T11:35:46;0.53;;;0.53;;
7759;SDS011;3924;48.830;9.262;2023-01-16T11:38:22;0.60;;;0.60;;
7759;SDS011;3924;48.830;9.262;2023-01-16T11:40:50;3.57;;;0.80;;
7759;SDS011;3924;48.830;9.262;2023-01-16T11:43:24;0.60;;;0.60;;
7759;SDS011;3924;48.830;9.262;2023-01-16T11:46:21;0.50;;;0.50;;
7759;SDS011;3924;48.830;9.262;2023-01-16T11:48:58;0.67;;;0.67;;
7759;SDS011;3924;48.830;9.262;2023-01-16T11:51:28;0.53;;;0.53;;
7759;SDS011;3924;48.830;9.262;2023-01-16T11:54:02;0.60;;;0.60;;
7759;SDS011;3924;48.830;9.262;2023-01-16T11:56:39;1.93;;;0.63;;
7759;SDS011;3924;48.830;9.262;2023-01-16T12:05:21;0.70;;;0.60;;
7759;SDS011;3924;48.830;9.262;2023-01-16T12:08:22;0.60;;;0.60;;
7759;SDS011;3924;48.830;9.262;2023-01-16T12:10:59;3.83;;;0.70;;
7759;SDS011;3924;48.830;9.262;2023-01-16T12:28:35;0.63;;;0.63;;
7759;SDS011;3924;48.830;9.262;2023-01-16T12:39:55;0.83;;;0.57;;
7759;SDS011;3924;48.830;9.262;2023-01-16T12:45:51;0.67;;;0.67;;
7759;SDS011;3924;48.830;9.262;2023-01-16T12:58:51;0.63;;;0.60;;
7759;SDS011;3924;48.830;9.262;2023-01-16T13:01:24;0.60;;;0.60;;
7759;SDS011;3924;48.830;9.262;2023-01-16T13:06:36;0.70;;;0.70;;
7759;SDS011;3924;48.830;9.262;2023-01-16T13:12:08;1.07;;;0.70;;
7759;SDS011;3924;48.830;9.262;2023-01-16T13:15:00;0.63;;;0.63;;
7759;SDS011;3924;48.830;9.262;2023-01-16T13:17:39;0.60;;;0.60;;
7759;SDS011;3924;48.830;9.262;2023-01-16T13:20:30;1.67;;;0.80;;
7759;SDS011;3924;48.830;9.262;2023-01-16T13:25:43;0.70;;;0.70;;
7759;SDS011;3924;48.830;9.262;2023-01-16T13:30:55;0.83;;;0.83;;
7759;SDS011;3924;48.830;9.262;2023-01-16T13:33:27;0.70;;;0.70;;
7759;SDS011;3924;48.830;9.262;2023-01-16T13:41:10;0.67;;;0.67;;
7759;SDS011;3924;48.830;9.262;2023-01-16T13:43:43;0.60;;;0.60;;
7759;SDS011;3924;48.830;9.262;2023-01-16T13:46:43;1.37;;;0.73;;
7759;SDS011;3924;48.830;9.262;2023-01-16T13:49:17;2.87;;;0.73;;
7759;SDS011;3924;48.830;9.262;2023-01-16T13:51:47;0.60;;;0.60;;
7759;SDS011;3924;48.830;9.262;2023-01-16T13:54:17;0.57;;;0.57;;
7759;SDS011;3924;48.830;9.262;2023-01-16T13:57:00;0.63;;;0.50;;
7759;SDS011;3924;48.830;9.262;2023-01-16T13:59:42;0.63;;;0.57;;
7759;SDS011;3924;48.830;9.262;2023-01-16T14:02:40;0.57;;;0.57;;
7759;SDS011;3924;48.830;9.262;2023-01-16T14:13:27;0.50;;;0.50;;
7759;SDS011;3924;48.830;9.262;2023-01-16T14:24:03;0.70;;;0.70;;
7759;SDS011;3924;48.830;9.262;2023-01-16T14:26:39;0.50;;;0.50;;
7759;SDS011;3924;48.830;9.262;2023-01-16T14:29:27;0.60;;;0.60;;
7759;SDS011;3924;48.830;9.262;2023-01-16T14:37:36;3.80;;;0.60;;
7759;SDS011;3924;48.830;9.262;2023-01-16T14:42:51;0.37;;;0.37;;
7759;SDS011;3924;48.830;9.262;2023-01-16T14:45:41;0.40;;;0.40;;
7759;SDS011;3924;48.830;9.262;2023-01-16T14:53:26;0.60;;;0.40;;
7759;SDS011;3924;48.830;9.262;2023-01-16T14:55:58;0.40;;;0.40;;
7759;SDS011;3924;48.830;9.262;2023-01-16T15:01:14;0.60;;;0.60;;
7759;SDS011;3924;48.830;9.262;2023-01-16T15:04:06;0.40;;;0.40;;
7759;SDS011;3924;48.830;9.262;2023-01-16T15:06:37;0.50;;;0.50;;
7759;SDS011;3924;48.830;9.262;2023-01-16T15:09:11;0.50;;;0.50;;
7759;SDS011;3924;48.830;9.262;2023-01-16T15:12:09;0.60;;;0.60;;
7759;SDS011;3924;48.830;9.262;2023-01-16T15:14:35;0.60;;;0.60;;
7759;SDS011;3924;48.830;9.262;2023-01-16T15:17:24;0.40;;;0.40;;
7759;SDS011;3924;48.830;9.262;2023-01-16T15:20:15;0.60;;;0.60;;
7759;SDS011;3924;48.830;9.262;2023-01-16T15:23:04;0.60;;;0.60;;
7759;SDS011;3924;48.830;9.262;2023-01-16T15:25:41;0.60;;;0.60;;
7759;SDS011;3924;48.830;9.262;2023-01-16T15:31:15;0.60;;;0.60;;
7759;SDS011;3924;48.830;9.262;2023-01-16T15:33:44;0.40;;;0.40;;
7759;SDS011;3924;48.830;9.262;2023-01-16T15:38:44;0.60;;;0.60;;
7759;SDS011;3924;48.830;9.262;2023-01-16T15:41:17;1.00;;;0.60;;
7759;SDS011;3924;48.830;9.262;2023-01-16T15:43:46;2.07;;;0.70;;
7759;SDS011;3924;48.830;9.262;2023-01-16T15:51:56;0.90;;;0.63;;
7759;SDS011;3924;48.830;9.262;2023-01-16T15:54:24;0.50;;;0.50;;
7759;SDS011;3924;48.830;9.262;2023-01-16T15:56:51;0.40;;;0.40;;
7759;SDS011;3924;48.830;9.262;2023-01-16T16:01:53;0.50;;;0.50;;
7759;SDS011;3924;48.830;9.262;2023-01-16T16:04:19;0.50;;;0.50;;
7759;SDS011;3924;48.830;9.262;2023-01-16T16:06:48;0.50;;;0.50;;
7759;SDS011;3924;48.830;9.262;2023-01-16T16:09:19;1.20;;;0.87;;
7759;SDS011;3924;48.830;9.262;2023-01-16T16:11:48;0.60;;;0.60;;
7759;SDS011;3924;48.830;9.262;2023-01-16T16:14:29;0.80;;;0.80;;
7759;SDS011;3924;48.830;9.262;2023-01-16T16:17:21;0.50;;;0.50;;
7759;SDS011;3924;48.830;9.262;2023-01-16T16:20:27;0.60;;;0.60;;
7759;SDS011;3924;48.830;9.262;2023-01-16T16:23:09;0.43;;;0.43;;
7759;SDS011;3924;48.830;9.262;2023-01-16T16:28:28;0.60;;;0.50;;
7759;SDS011;3924;48.830;9.262;2023-01-16T16:31:04;0.40;;;0.40;;
7759;SDS011;3924;48.830;9.262;2023-01-16T16:33:37;0.50;;;0.50;;
7759;SDS011;3924;48.830;9.262;2023-01-16T16:36:05;0.60;;;0.60;;
7759;SDS011;3924;48.830;9.262;2023-01-16T16:38:40;0.83;;;0.60;;
7759;SDS011;3924;48.830;9.262;2023-01-16T16:44:23;0.50;;;0.50;;
7759;SDS011;3924;48.830;9.262;2023-01-16T16:46:50;1.27;;;0.70;;
7759;SDS011;3924;48.830;9.262;2023-01-16T16:51:50;0.83;;;0.83;;
7759;SDS011;3924;48.830;9.262;2023-01-16T16:54:17;0.70;;;0.70;;
7759;SDS011;3924;48.830;9.262;2023-01-16T16:56:46;0.60;;;0.60;;
7759;SDS011;3924;48.830;9.262;2023-01-16T16:59:17;0.90;;;0.77;;
7759;SDS011;3924;48.830;9.262;2023-01-16T17:01:47;0.50;;;0.50;;
7759;SDS011;3924;48.830;9.262;2023-01-16T17:04:15;1.60;;;0.70;;
7759;SDS011;3924;48.830;9.262;2023-01-16T17:06:43;0.97;;;0.50;;
7759;SDS011;3924;48.830;9.262;2023-01-16T17:09:12;0.50;;;0.50;;
7759;SDS011;3924;48.830;9.262;2023-01-16T17:11:40;0.50;;;0.50;;
7759;SDS011;3924;48.830;9.262;2023-01-16T17:14:07;0.67;;;0.60;;
7759;SDS011;3924;48.830;9.262;2023-01-16T17:16:33;2.50;;;0.70;;
7759;SDS011;3924;48.830;9.262;2023-01-16T17:19:03;0.50;;;0.50;;
7759;SDS011;3924;48.830;9.262;2023-01-16T17:21:39;0.67;;;0.67;;
7759;SDS011;3924;48.830;9.262;2023-01-16T17:24:07;0.70;;;0.70;;
7759;SDS011;3924;48.830;9.262;2023-01-16T17:29:07;0.60;;;0.60;;
7759;SDS011;3924;48.830;9.262;2023-01-16T17:31:34;0.60;;;0.60;;
7759;SDS011;3924;48.830;9.262;2023-01-16T17:34:04;0.80;;;0.53;;
7759;SDS011;3924;48.830;9.262;2023-01-16T17:36:31;0.90;;;0.90;;
7759;SDS011;3924;48.830;9.262;2023-01-16T17:38:59;0.60;;;0.60;;
7759;SDS011;3924;48.830;9.262;2023-01-16T17:41:26;0.87;;;0.87;;
7759;SDS011;3924;48.830;9.262;2023-01-16T17:44:13;0.83;;;0.83;;
7759;SDS011;3924;48.830;9.262;2023-01-16T17:47:00;2.43;;;0.77;;
7759;SDS011;3924;48.830;9.262;2023-01-16T17:49:27;0.50;;;0.50;;
7759;SDS011;3924;48.830;9.262;2023-01-16T17:51:53;0.60;;;0.60;;
7759;SDS011;3924;48.830;9.262;2023-01-16T17:54:20;0.77;;;0.77;;
7759;SDS011;3924;48.830;9.262;2023-01-16T17:57:06;0.67;;;0.67;;
7759;SDS011;3924;48.830;9.262;2023-01-16T17:59:32;0.50;;;0.50;;
7759;SDS011;3924;48.830;9.262;2023-01-16T18:01:58;0.83;;;0.83;;
7759;SDS011;3924;48.830;9.262;2023-01-16T18:04:25;0.57;;;0.57;;
7759;SDS011;3924;48.830;9.262;2023-01-16T18:06:57;0.63;;;0.63;;
7759;SDS011;3924;48.830;9.262;2023-01-16T18:09:24;0.50;;;0.50;;
7759;SDS011;3924;48.830;9.262;2023-01-16T18:11:52;0.50;;;0.50;;
7759;SDS011;3924;48.830;9.262;2023-01-16T18:14:36;0.70;;;0.60;;
7759;SDS011;3924;48.830;9.262;2023-01-16T18:17:23;0.63;;;0.63;;
7759;SDS011;3924;48.830;9.262;2023-01-16T18:19:51;0.90;;;0.90;;
7759;SDS011;3924;48.830;9.262;2023-01-16T18:22:22;0.60;;;0.60;;
7759;SDS011;3924;48.830;9.262;2023-01-16T18:24:53;1.23;;;0.50;;
7759;SDS011;3924;48.830;9.262;2023-01-16T18:27:20;0.80;;;0.70;;
7759;SDS011;3924;48.830;9.262;2023-01-16T18:29:47;0.50;;;0.50;;
7759;SDS011;3924;48.830;9.262;2023-01-16T18:32:14;0.60;;;0.60;;
7759;SDS011;3924;48.830;9.262;2023-01-16T18:34:55;0.47;;;0.47;;
7759;SDS011;3924;48.830;9.262;2023-01-16T18:37:31;0.50;;;0.50;;
7759;SDS011;3924;48.830;9.262;2023-01-16T18:40:00;1.23;;;0.53;;
7759;SDS011;3924;48.830;9.262;2023-01-16T18:42:46;0.40;;;0.40;;
7759;SDS011;3924;48.830;9.262;2023-01-16T18:45:31;0.30;;;0.30;;
7759;SDS011;3924;48.830;9.262;2023-01-16T18:48:17;0.40;;;0.40;;
7759;SDS011;3924;48.830;9.262;2023-01-16T18:51:02;0.67;;;0.67;;
7759;SDS011;3924;48.830;9.262;2023-01-16T18:54:10;0.60;;;0.60;;
7759;SDS011;3924;48.830;9.262;2023-01-16T18:56:59;0.50;;;0.50;;
7759;SDS011;3924;48.830;9.262;2023-01-16T18:59:44;0.57;;;0.57;;
7759;SDS011;3924;48.830;9.262;2023-01-16T19:02:43;2.17;;;0.60;;
7759;SDS011;3924;48.830;9.262;2023-01-16T19:05:12;0.87;;;0.50;;